Time;durP1;ratioP1;P1;durP2;ratioP2;P2;SDS_P1;SDS_P2;PMS_P1;PMS_P2;Temp;Humidity;BMP_temperature;BMP_pressure;BME280_temperature;BME280_humidity;BME280_pressure;Samples;Min_cycle;Max_cycle;Signal;HPM_P1;HPM_P2
2023/05/22 00:00:43;;;;;;;10.77;8.20;;;15.80;99.90;;;;;;5087215;28;20043;-72
2023/05/22 00:03:09;;;;;;;13.40;9.43;;;15.80;99.90;;;;;;5080161;28;20063;-64
2023/05/22 00:05:37;;;;;;;15.38;9.00;;;15.80;99.90;;;;;;5078364;28;20115;-64
2023/05/22 00:08:05;;;;;;;12.38;9.25;;;15.80;99.90;;;;;;5084236;28;20059;-70
2023/05/22 00:10:31;;;;;;;18.33;10.05;;;15.80;99.90;;;;;;5098282;28;20040;-62
2023/05/22 00:12:56;;;;;;;12.80;8.52;;;15.80;99.90;;;;;;5073360;28;20109;-67
2023/05/22 00:15:22;;;;;;;12.38;8.90;;;15.80;99.90;;;;;;5089624;28;20527;-69
2023/05/22 00:17:48;;;;;;;10.27;8.70;;;15.80;99.90;;;;;;5080771;28;20051;-65
2023/05/22 00:20:14;;;;;;;15.18;8.68;;;15.80;99.90;;;;;;5090231;28;20051;-64
2023/05/22 00:22:41;;;;;;;17.17;9.15;;;15.80;99.90;;;;;;5087103;28;20495;-70
2023/05/22 00:25:07;;;;;;;16.30;8.88;;;15.80;99.90;;;;;;5076856;28;20189;-68
2023/05/22 00:27:33;;;;;;;10.95;8.35;;;15.80;99.90;;;;;;5080967;28;20069;-64
2023/05/22 00:29:59;;;;;;;11.43;8.35;;;15.70;99.90;;;;;;5083174;28;20508;-66
2023/05/22 00:32:25;;;;;;;12.65;8.45;;;15.70;99.90;;;;;;5082272;28;20093;-66
2023/05/22 00:34:51;;;;;;;10.32;7.90;;;15.80;99.90;;;;;;5059229;28;20737;-62
2023/05/22 00:37:21;;;;;;;16.95;9.07;;;15.80;99.90;;;;;;5090162;28;20126;-73
2023/05/22 00:39:47;;;;;;;10.45;8.95;;;15.80;99.90;;;;;;5089306;28;20055;-70
2023/05/22 00:42:13;;;;;;;9.98;8.30;;;15.80;99.90;;;;;;5093753;27;20034;-69
2023/05/22 00:44:40;;;;;;;11.70;8.27;;;15.70;99.90;;;;;;5089099;28;20051;-62
2023/05/22 00:47:06;;;;;;;10.80;7.90;;;15.70;99.90;;;;;;5073321;28;20040;-69
2023/05/22 00:49:32;;;;;;;11.82;8.20;;;15.70;99.90;;;;;;5112292;27;20040;-70
2023/05/22 00:51:58;;;;;;;15.40;8.45;;;15.70;99.90;;;;;;5088486;28;20781;-66
2023/05/22 00:54:24;;;;;;;10.80;7.88;;;15.70;99.90;;;;;;5073532;28;20043;-64
2023/05/22 00:56:50;;;;;;;11.00;8.38;;;15.70;99.90;;;;;;5088781;28;20097;-70
2023/05/22 00:59:16;;;;;;;11.82;8.30;;;15.70;99.90;;;;;;5089455;28;20586;-69
2023/05/22 01:01:43;;;;;;;10.93;9.02;;;15.70;99.90;;;;;;5071281;28;20040;-63
2023/05/22 01:04:11;;;;;;;12.13;8.20;;;15.70;99.90;;;;;;5072750;28;20051;-64
2023/05/22 01:06:37;;;;;;;10.77;8.70;;;15.70;99.90;;;;;;5089009;28;20043;-65
2023/05/22 01:09:03;;;;;;;11.20;8.43;;;15.70;99.90;;;;;;5088960;28;20139;-64
2023/05/22 01:11:59;;;;;;;12.65;9.00;;;15.80;99.90;;;;;;5073171;28;20052;-63
2023/05/22 01:14:40;;;;;;;12.10;8.10;;;15.70;99.90;;;;;;5107826;27;20042;-62
2023/05/22 01:17:24;;;;;;;10.48;7.93;;;15.70;99.90;;;;;;5077891;28;20472;-62
2023/05/22 01:20:00;;;;;;;15.77;8.68;;;15.70;99.90;;;;;;5058736;28;20060;-62
2023/05/22 01:22:42;;;;;;;9.32;7.43;;;15.80;99.90;;;;;;5101646;28;20449;-72
2023/05/22 01:25:46;;;;;;;13.85;8.13;;;15.70;99.90;;;;;;5100184;28;20055;-72
2023/05/22 01:28:31;;;;;;;13.40;8.40;;;15.80;99.90;;;;;;5069355;28;20056;-67
2023/05/22 01:31:01;;;;;;;9.23;7.78;;;15.80;99.90;;;;;;5102079;28;20592;-65
2023/05/22 01:33:41;;;;;;;8.95;7.75;;;15.80;99.90;;;;;;5076253;28;20582;-66
2023/05/22 01:36:08;;;;;;;10.95;8.30;;;15.80;99.90;;;;;;5068022;28;20043;-63
2023/05/22 01:38:35;;;;;;;10.60;8.25;;;15.90;99.90;;;;;;5072366;28;20059;-61
2023/05/22 01:41:00;;;;;;;12.23;8.95;;;15.90;99.90;;;;;;5055963;28;20086;-66
2023/05/22 01:43:26;;;;;;;13.98;8.05;;;16.00;99.90;;;;;;5084755;28;20135;-68
2023/05/22 01:45:52;;;;;;;14.68;8.48;;;16.10;99.90;;;;;;5048709;28;20041;-68
2023/05/22 01:48:18;;;;;;;12.00;8.32;;;16.20;99.90;;;;;;5068045;28;20051;-71
2023/05/22 01:50:47;;;;;;;13.43;8.32;;;16.10;99.90;;;;;;5068123;28;20058;-72
2023/05/22 01:53:38;;;;;;;11.82;8.70;;;16.20;99.90;;;;;;5070226;28;20449;-70
2023/05/22 01:56:14;;;;;;;11.90;7.72;;;16.30;99.90;;;;;;5074206;28;20076;-73
2023/05/22 01:58:51;;;;;;;12.30;8.48;;;16.30;99.90;;;;;;5067314;28;20059;-63
2023/05/22 02:01:19;;;;;;;11.25;8.68;;;16.30;99.90;;;;;;5067422;28;20526;-71
2023/05/22 02:03:47;;;;;;;11.10;8.55;;;16.30;99.90;;;;;;5068874;28;20032;-71
2023/05/22 02:06:14;;;;;;;12.23;8.88;;;16.30;99.90;;;;;;5083529;28;20054;-62
2023/05/22 02:08:41;;;;;;;11.35;8.30;;;16.20;99.90;;;;;;5068158;28;20040;-64
2023/05/22 02:11:09;;;;;;;16.08;8.23;;;16.20;99.90;;;;;;5067638;28;20371;-63
2023/05/22 02:13:35;;;;;;;9.95;8.40;;;16.20;99.90;;;;;;5076778;28;20606;-62
2023/05/22 02:16:02;;;;;;;10.55;8.20;;;16.10;99.90;;;;;;5067900;28;20095;-64
2023/05/22 02:18:29;;;;;;;11.05;7.85;;;16.10;99.90;;;;;;5061296;28;20051;-68
2023/05/22 02:20:56;;;;;;;9.52;8.13;;;16.10;99.90;;;;;;5071106;28;20048;-66
2023/05/22 02:23:22;;;;;;;11.27;8.48;;;16.10;99.90;;;;;;5070462;28;20055;-72
2023/05/22 02:25:48;;;;;;;11.95;8.55;;;16.10;99.90;;;;;;5087677;28;20134;-73
2023/05/22 02:28:14;;;;;;;11.85;9.80;;;16.00;99.90;;;;;;5087163;28;20039;-71
2023/05/22 02:30:39;;;;;;;12.13;8.90;;;16.10;99.90;;;;;;5087713;28;20131;-67
2023/05/22 02:33:05;;;;;;;17.30;9.50;;;16.10;99.90;;;;;;5103626;28;20036;-63
2023/05/22 02:35:33;;;;;;;11.45;8.75;;;16.10;99.90;;;;;;5086835;28;20066;-64
2023/05/22 02:37:59;;;;;;;11.95;9.75;;;16.20;99.90;;;;;;5087359;28;20458;-72
2023/05/22 02:40:24;;;;;;;13.27;9.77;;;16.10;99.90;;;;;;5069586;28;20040;-72
2023/05/22 02:42:50;;;;;;;10.25;9.13;;;16.20;99.90;;;;;;5070136;28;20069;-62
2023/05/22 02:45:16;;;;;;;16.48;9.65;;;16.10;99.90;;;;;;5087661;28;20050;-65
2023/05/22 02:47:41;;;;;;;11.18;9.95;;;16.20;99.90;;;;;;5086953;28;20274;-65
2023/05/22 02:50:08;;;;;;;15.30;10.30;;;16.10;99.90;;;;;;5086878;28;20376;-62
2023/05/22 02:52:34;;;;;;;11.55;10.13;;;16.20;99.90;;;;;;5069717;28;20040;-73
2023/05/22 02:55:00;;;;;;;12.77;9.80;;;16.20;99.90;;;;;;5071387;28;20046;-64
2023/05/22 02:57:25;;;;;;;14.40;10.02;;;16.10;99.90;;;;;;5053144;28;20421;-65
2023/05/22 02:59:52;;;;;;;16.50;10.25;;;16.20;99.90;;;;;;5070287;28;20058;-64
2023/05/22 03:02:18;;;;;;;16.55;10.65;;;16.20;99.90;;;;;;5053992;28;20100;-65
2023/05/22 03:04:45;;;;;;;14.55;10.80;;;16.20;99.90;;;;;;5121003;27;20039;-64
2023/05/22 03:07:11;;;;;;;15.35;10.35;;;16.20;99.90;;;;;;5070124;28;20044;-66
2023/05/22 03:09:37;;;;;;;15.35;10.00;;;16.20;99.90;;;;;;5086862;28;20130;-64
2023/05/22 03:12:04;;;;;;;14.40;10.60;;;16.10;99.90;;;;;;5105500;28;20047;-62
2023/05/22 03:14:29;;;;;;;18.40;11.77;;;16.10;99.90;;;;;;5087303;28;20050;-62
2023/05/22 03:16:55;;;;;;;16.75;10.63;;;16.10;99.90;;;;;;5093873;28;20414;-63
2023/05/22 03:19:21;;;;;;;15.40;11.32;;;16.10;99.90;;;;;;5086496;28;20086;-65
2023/05/22 03:21:48;;;;;;;12.05;10.75;;;16.10;99.90;;;;;;5086848;28;20048;-67
2023/05/22 03:24:15;;;;;;;16.58;12.38;;;16.10;99.90;;;;;;5086788;28;20051;-64
2023/05/22 03:26:40;;;;;;;16.75;11.55;;;16.10;99.90;;;;;;5092358;28;20128;-71
2023/05/22 03:29:06;;;;;;;14.30;11.15;;;16.00;99.90;;;;;;5087066;28;20043;-61
2023/05/22 03:31:33;;;;;;;17.85;11.45;;;16.00;99.90;;;;;;5087168;28;20090;-67
2023/05/22 03:33:59;;;;;;;23.77;13.23;;;15.90;99.90;;;;;;5103950;27;20364;-70
2023/05/22 03:36:25;;;;;;;20.45;13.40;;;15.80;99.90;;;;;;5077028;28;20409;-68
2023/05/22 03:38:51;;;;;;;21.05;12.55;;;15.80;99.90;;;;;;5074112;28;20031;-67
2023/05/22 03:41:17;;;;;;;18.17;12.10;;;15.70;99.90;;;;;;5090642;28;20043;-62
2023/05/22 03:43:43;;;;;;;18.35;12.10;;;15.70;99.90;;;;;;5091323;28;20047;-61
2023/05/22 03:46:12;;;;;;;19.35;12.10;;;15.60;99.90;;;;;;5090755;28;20059;-66
2023/05/22 03:48:38;;;;;;;17.40;12.98;;;15.70;99.90;;;;;;5074940;28;20051;-66
2023/05/22 03:51:04;;;;;;;24.30;13.88;;;15.60;99.90;;;;;;5074745;28;20143;-64
2023/05/22 03:53:30;;;;;;;24.55;14.50;;;15.50;99.90;;;;;;5090447;28;20039;-66
2023/05/22 03:55:58;;;;;;;19.63;15.10;;;15.40;99.90;;;;;;5090921;28;20441;-64
2023/05/22 03:58:24;;;;;;;28.23;13.93;;;15.30;99.90;;;;;;5090035;28;20091;-66
2023/05/22 04:00:54;;;;;;;26.88;14.45;;;15.30;99.90;;;;;;5089956;28;20051;-69
2023/05/22 04:03:20;;;;;;;19.80;14.20;;;15.30;99.90;;;;;;5073118;28;20054;-62
2023/05/22 04:05:46;;;;;;;21.48;14.07;;;15.30;99.90;;;;;;5124607;27;20031;-62
2023/05/22 04:08:12;;;;;;;20.98;14.77;;;15.20;99.90;;;;;;5090166;28;20047;-69
2023/05/22 04:10:37;;;;;;;26.95;13.77;;;15.30;99.90;;;;;;5090638;28;20062;-71
2023/05/22 04:13:04;;;;;;;19.35;14.75;;;15.20;99.90;;;;;;5109809;27;20343;-63
2023/05/22 04:15:33;;;;;;;24.98;15.63;;;15.10;99.90;;;;;;5073318;28;20094;-65
2023/05/22 04:17:59;;;;;;;22.25;14.98;;;15.10;99.90;;;;;;5090141;28;20051;-62
2023/05/22 04:20:25;;;;;;;23.83;14.70;;;15.10;99.90;;;;;;5090124;28;20246;-70
2023/05/22 04:22:53;;;;;;;22.08;14.00;;;15.10;99.90;;;;;;5091376;28;20550;-61
2023/05/22 04:25:19;;;;;;;20.60;14.77;;;15.10;99.90;;;;;;5073738;28;20190;-63
2023/05/22 04:27:46;;;;;;;18.25;13.50;;;15.10;99.90;;;;;;5090325;28;20081;-62
2023/05/22 04:30:13;;;;;;;25.70;14.38;;;15.10;99.90;;;;;;5090401;28;20073;-63
2023/05/22 04:32:39;;;;;;;22.70;15.07;;;15.10;99.90;;;;;;5090970;27;20108;-71
2023/05/22 04:35:05;;;;;;;21.90;14.15;;;15.10;99.90;;;;;;5090164;28;20126;-65
2023/05/22 04:37:31;;;;;;;20.67;13.57;;;15.20;99.90;;;;;;5089743;28;20078;-64
2023/05/22 04:40:02;;;;;;;19.48;13.32;;;15.10;99.90;;;;;;5073059;28;20067;-64
2023/05/22 04:42:29;;;;;;;21.58;13.68;;;15.10;99.90;;;;;;5090120;28;20050;-65
2023/05/22 04:44:56;;;;;;;23.05;13.63;;;15.10;99.90;;;;;;5092013;28;20043;-63
2023/05/22 04:47:23;;;;;;;21.95;12.73;;;15.10;99.90;;;;;;5090042;28;20359;-64
2023/05/22 04:49:50;;;;;;;23.50;12.57;;;15.20;99.90;;;;;;5089248;28;20101;-75
2023/05/22 04:52:16;;;;;;;21.02;12.20;;;15.20;99.90;;;;;;5090191;28;20066;-67
2023/05/22 04:54:45;;;;;;;19.42;11.15;;;15.20;99.90;;;;;;5101823;27;20039;-69
2023/05/22 04:57:10;;;;;;;15.50;11.45;;;15.30;99.90;;;;;;5076149;28;20044;-66
2023/05/22 04:59:40;;;;;;;17.05;11.27;;;15.30;99.90;;;;;;5089275;28;20053;-67
2023/05/22 05:02:06;;;;;;;17.48;12.18;;;15.40;99.90;;;;;;5092270;28;20047;-64
2023/05/22 05:04:32;;;;;;;18.75;11.52;;;15.40;99.90;;;;;;5089403;28;20058;-68
2023/05/22 05:06:58;;;;;;;18.67;11.68;;;15.40;99.90;;;;;;5089219;28;20055;-63
2023/05/22 05:09:24;;;;;;;15.65;10.02;;;15.50;99.90;;;;;;5056384;28;20498;-70
2023/05/22 05:11:51;;;;;;;20.30;10.75;;;15.40;99.90;;;;;;5097801;27;20043;-67
2023/05/22 05:14:17;;;;;;;17.15;11.02;;;15.50;99.90;;;;;;5075754;28;20054;-71
2023/05/22 05:16:43;;;;;;;16.20;10.27;;;15.50;99.90;;;;;;5071901;28;20409;-70
2023/05/22 05:19:08;;;;;;;13.40;10.57;;;15.40;99.90;;;;;;5089044;28;20060;-64
2023/05/22 05:21:34;;;;;;;14.95;9.95;;;15.50;99.90;;;;;;5090118;27;20043;-63
2023/05/22 05:24:00;;;;;;;16.33;10.10;;;15.50;99.90;;;;;;5062024;28;20059;-64
2023/05/22 05:26:26;;;;;;;21.42;10.63;;;15.60;99.90;;;;;;5088664;28;20052;-63
2023/05/22 05:28:52;;;;;;;14.15;9.85;;;15.60;99.90;;;;;;5088732;28;20393;-66
2023/05/22 05:31:21;;;;;;;15.05;10.35;;;15.60;99.90;;;;;;5089313;28;20109;-70
2023/05/22 05:33:47;;;;;;;11.98;9.32;;;15.60;99.90;;;;;;5096317;28;20055;-71
2023/05/22 05:36:13;;;;;;;12.23;9.88;;;15.60;99.90;;;;;;5088996;28;20580;-65
2023/05/22 05:38:39;;;;;;;14.45;9.07;;;15.70;99.90;;;;;;5088761;28;20139;-64
2023/05/22 05:41:06;;;;;;;14.13;9.02;;;15.60;99.90;;;;;;5089168;28;20074;-67
2023/05/22 05:43:32;;;;;;;13.15;8.80;;;15.60;99.90;;;;;;5072907;28;20054;-63
2023/05/22 05:45:57;;;;;;;11.52;8.98;;;15.70;99.90;;;;;;5054858;28;20051;-64
2023/05/22 05:48:23;;;;;;;16.40;8.43;;;15.70;99.90;;;;;;5072037;28;20039;-62
2023/05/22 05:50:49;;;;;;;14.20;8.90;;;15.70;99.90;;;;;;5088201;28;20488;-69
2023/05/22 05:53:15;;;;;;;12.00;8.30;;;15.80;99.90;;;;;;5072860;28;20128;-67
2023/05/22 05:55:40;;;;;;;12.63;8.20;;;15.80;99.90;;;;;;5095430;27;20038;-71
2023/05/22 05:58:06;;;;;;;12.10;8.40;;;15.70;99.90;;;;;;5060275;28;20043;-62
2023/05/22 06:00:32;;;;;;;12.48;7.90;;;15.90;99.90;;;;;;5088082;28;20051;-66
2023/05/22 06:02:58;;;;;;;8.85;7.75;;;15.80;99.90;;;;;;5088575;28;20391;-72
2023/05/22 06:05:25;;;;;;;17.73;9.07;;;15.90;99.90;;;;;;5071821;28;20043;-64
2023/05/22 06:07:51;;;;;;;12.73;7.50;;;15.90;99.90;;;;;;5088426;28;20126;-64
2023/05/22 06:10:17;;;;;;;11.88;8.18;;;16.00;99.90;;;;;;5075260;28;20134;-69
2023/05/22 06:12:43;;;;;;;16.58;8.80;;;16.00;99.90;;;;;;5086234;28;20055;-61
2023/05/22 06:15:09;;;;;;;11.85;8.15;;;16.00;99.90;;;;;;5072262;28;20501;-62
2023/05/22 06:17:36;;;;;;;9.90;7.78;;;16.00;99.90;;;;;;5121371;27;20070;-67
2023/05/22 06:20:05;;;;;;;18.13;7.72;;;16.10;99.90;;;;;;5071098;28;20127;-61
2023/05/22 06:22:31;;;;;;;12.68;8.48;;;16.10;99.90;;;;;;5087686;28;20080;-69
2023/05/22 06:24:57;;;;;;;10.05;7.82;;;16.00;99.90;;;;;;5071787;28;20048;-71
2023/05/22 06:27:23;;;;;;;9.38;7.30;;;16.00;99.90;;;;;;5069768;28;20042;-69
2023/05/22 06:29:50;;;;;;;15.02;8.13;;;16.10;99.90;;;;;;5086257;28;20050;-63
2023/05/22 06:32:16;;;;;;;17.95;7.72;;;16.10;99.90;;;;;;5070634;28;20043;-65
2023/05/22 06:34:43;;;;;;;10.45;7.47;;;16.10;99.90;;;;;;5077786;28;20556;-69
2023/05/22 06:37:12;;;;;;;12.05;7.45;;;16.20;99.90;;;;;;5069681;28;20144;-62
2023/05/22 06:39:39;;;;;;;12.95;7.95;;;16.20;99.90;;;;;;5086668;28;20052;-63
2023/05/22 06:42:05;;;;;;;13.02;7.07;;;16.20;99.90;;;;;;5105308;28;20127;-61
2023/05/22 06:44:30;;;;;;;18.13;7.18;;;16.20;99.90;;;;;;5086413;28;20065;-71
2023/05/22 06:46:56;;;;;;;15.45;6.90;;;16.20;99.90;;;;;;5069893;28;20039;-64
2023/05/22 06:49:22;;;;;;;21.95;7.40;;;16.20;99.90;;;;;;5086488;28;20039;-63
2023/05/22 06:51:48;;;;;;;15.13;6.68;;;16.20;99.90;;;;;;5086759;28;20065;-65
2023/05/22 06:54:14;;;;;;;13.98;6.40;;;16.10;99.90;;;;;;5053303;28;20392;-63
2023/05/22 06:56:40;;;;;;;12.40;6.53;;;16.10;99.90;;;;;;5080884;28;20048;-65
2023/05/22 06:59:06;;;;;;;16.92;5.60;;;16.10;99.90;;;;;;5086316;28;20482;-65
2023/05/22 07:01:32;;;;;;;20.70;5.97;;;16.10;99.90;;;;;;5120357;27;20077;-61
2023/05/22 07:04:00;;;;;;;12.00;5.78;;;16.10;99.90;;;;;;5070473;28;20047;-64
2023/05/22 07:06:26;;;;;;;14.25;6.50;;;16.00;99.90;;;;;;5086840;28;20048;-66
2023/05/22 07:08:52;;;;;;;12.98;6.10;;;16.00;99.90;;;;;;5071552;28;20039;-69
2023/05/22 07:11:18;;;;;;;15.13;5.72;;;16.00;99.90;;;;;;5105557;28;20097;-67
2023/05/22 07:13:44;;;;;;;10.18;5.65;;;16.00;99.90;;;;;;5050007;28;20039;-68
2023/05/22 07:16:10;;;;;;;17.00;6.13;;;16.00;99.90;;;;;;5088807;28;20074;-65
2023/05/22 07:18:37;;;;;;;17.13;6.07;;;16.10;99.90;;;;;;5087038;28;20091;-63
2023/05/22 07:21:02;;;;;;;14.68;6.10;;;16.00;99.90;;;;;;5087275;28;20490;-64
2023/05/22 07:23:28;;;;;;;15.45;5.97;;;15.90;99.90;;;;;;5087308;28;20050;-63
2023/05/22 07:25:54;;;;;;;20.08;6.47;;;15.90;99.90;;;;;;5070785;28;20782;-63
2023/05/22 07:28:20;;;;;;;19.50;6.43;;;16.00;99.90;;;;;;5086769;28;20052;-67
2023/05/22 07:30:45;;;;;;;17.98;5.70;;;15.90;99.90;;;;;;5070279;28;20100;-67
2023/05/22 07:33:12;;;;;;;18.80;7.00;;;15.90;99.90;;;;;;5087309;28;20040;-61
2023/05/22 07:35:38;;;;;;;18.58;7.63;;;15.90;99.90;;;;;;5105202;28;20052;-62
2023/05/22 07:38:04;;;;;;;18.52;6.35;;;15.90;99.90;;;;;;5066627;28;20054;-65
2023/05/22 07:40:30;;;;;;;26.75;6.60;;;16.00;99.90;;;;;;5069681;28;20524;-68
2023/05/22 07:42:55;;;;;;;22.75;7.20;;;15.90;99.90;;;;;;5051925;28;20070;-71
2023/05/22 07:45:21;;;;;;;17.52;7.32;;;15.90;99.90;;;;;;5115136;28;20135;-63
2023/05/22 07:47:47;;;;;;;20.85;7.45;;;15.80;99.90;;;;;;5070052;28;20036;-62
2023/05/22 07:50:13;;;;;;;18.42;7.18;;;15.80;99.90;;;;;;5069735;28;20127;-62
2023/05/22 07:52:38;;;;;;;19.52;7.15;;;15.90;99.90;;;;;;5062124;28;20697;-66
2023/05/22 07:55:06;;;;;;;15.10;6.95;;;15.90;99.90;;;;;;5073178;28;20036;-66
2023/05/22 07:57:35;;;;;;;22.95;7.03;;;15.90;99.90;;;;;;5071249;28;20264;-62
2023/05/22 08:00:13;;;;;;;22.38;8.23;;;15.90;99.90;;;;;;5108802;28;20044;-66
2023/05/22 08:02:40;;;;;;;17.92;7.28;;;15.90;99.90;;;;;;5114051;28;20048;-64
2023/05/22 08:05:07;;;;;;;26.70;8.70;;;15.90;99.90;;;;;;5103466;28;20051;-64
2023/05/22 08:07:33;;;;;;;20.08;7.63;;;16.00;99.90;;;;;;5116118;28;20509;-62
2023/05/22 08:10:00;;;;;;;19.92;7.50;;;16.00;99.90;;;;;;5097676;28;20370;-64
2023/05/22 08:12:25;;;;;;;22.55;8.10;;;16.10;99.90;;;;;;5088433;28;20042;-62
2023/05/22 08:14:51;;;;;;;20.05;7.50;;;16.30;99.90;;;;;;5086251;28;20327;-65
2023/05/22 08:17:17;;;;;;;16.90;6.95;;;16.40;99.90;;;;;;5068088;28;20079;-63
2023/05/22 08:19:43;;;;;;;21.83;7.65;;;16.60;99.90;;;;;;5067428;28;20577;-70
2023/05/22 08:22:09;;;;;;;27.10;8.50;;;16.70;99.90;;;;;;5072569;28;20055;-68
2023/05/22 08:24:35;;;;;;;22.15;8.73;;;16.70;99.90;;;;;;5059880;28;20056;-62
2023/05/22 08:27:01;;;;;;;22.77;7.45;;;16.80;99.90;;;;;;5074160;28;20114;-66
2023/05/22 08:29:27;;;;;;;23.55;7.65;;;16.90;99.90;;;;;;5094990;27;20130;-61
2023/05/22 08:31:55;;;;;;;22.85;7.25;;;16.80;99.90;;;;;;5093606;28;20434;-63
2023/05/22 08:34:21;;;;;;;24.15;7.50;;;16.90;99.90;;;;;;5102226;27;20154;-65
2023/05/22 08:36:48;;;;;;;24.65;7.57;;;17.00;99.90;;;;;;5107368;27;20052;-65
2023/05/22 08:39:15;;;;;;;25.95;8.18;;;17.00;99.90;;;;;;5089107;28;20043;-63
2023/05/22 08:41:43;;;;;;;23.00;6.60;;;17.00;99.90;;;;;;5090341;28;20048;-65
2023/05/22 08:44:12;;;;;;;25.63;7.93;;;17.00;99.90;;;;;;5088657;28;20604;-60
2023/05/22 08:46:42;;;;;;;26.35;8.05;;;17.00;99.90;;;;;;5087763;27;20177;-61
2023/05/22 08:49:09;;;;;;;31.05;7.72;;;17.00;99.90;;;;;;5089292;28;20072;-65
2023/05/22 08:51:43;;;;;;;22.65;8.38;;;17.00;99.90;;;;;;5090070;28;20051;-62
2023/05/22 08:54:09;;;;;;;33.90;8.68;;;16.90;99.90;;;;;;5089257;28;20185;-62
2023/05/22 08:56:35;;;;;;;27.65;8.10;;;16.90;99.90;;;;;;5120112;27;20126;-69
2023/05/22 08:59:02;;;;;;;25.88;8.23;;;16.90;99.90;;;;;;5058694;28;20387;-62
2023/05/22 09:01:29;;;;;;;27.30;8.00;;;16.80;99.90;;;;;;5089046;27;20458;-67
2023/05/22 09:04:00;;;;;;;27.50;8.38;;;16.70;99.90;;;;;;5085632;28;20115;-62
2023/05/22 09:06:29;;;;;;;21.33;8.77;;;16.60;99.90;;;;;;5088037;28;20409;-66
2023/05/22 09:09:02;;;;;;;21.40;7.93;;;16.50;99.90;;;;;;5086925;28;20565;-67
2023/05/22 09:11:28;;;;;;;25.33;8.68;;;16.40;99.90;;;;;;5068918;28;20066;-63
2023/05/22 09:14:06;;;;;;;19.35;8.60;;;16.40;99.90;;;;;;5052610;28;20032;-70
2023/05/22 09:16:31;;;;;;;23.27;7.53;;;16.40;99.90;;;;;;5085783;28;20047;-65
2023/05/22 09:18:58;;;;;;;31.10;8.27;;;16.40;99.90;;;;;;5088519;28;20058;-68
2023/05/22 09:21:28;;;;;;;19.95;8.00;;;16.40;99.90;;;;;;5088836;28;20054;-65
2023/05/22 09:23:58;;;;;;;;;;;16.40;99.90;;;;;;5087957;28;20134;-61
2023/05/22 09:26:27;;;;;;;23.85;8.55;;;16.40;99.90;;;;;;5088649;28;19923;-72
2023/05/22 09:28:52;;;;;;;23.42;8.02;;;16.40;99.90;;;;;;5089145;28;20389;-65
2023/05/22 09:31:18;;;;;;;19.83;7.80;;;16.40;99.90;;;;;;5087050;28;20084;-65
2023/05/22 09:33:44;;;;;;;22.73;8.13;;;16.40;99.90;;;;;;5087277;28;20047;-67
2023/05/22 09:36:10;;;;;;;28.40;8.25;;;16.50;99.90;;;;;;5087884;28;20059;-62
2023/05/22 09:38:36;;;;;;;21.23;7.97;;;16.50;99.90;;;;;;5072154;28;20402;-67
2023/05/22 09:41:02;;;;;;;20.00;8.10;;;16.50;99.90;;;;;;5088998;28;20055;-69
2023/05/22 09:43:27;;;;;;;16.45;7.40;;;16.50;99.90;;;;;;5071393;27;20059;-70
2023/05/22 09:46:00;;;;;;;17.85;7.82;;;16.50;99.90;;;;;;5088546;28;20070;-62
2023/05/22 09:48:27;;;;;;;23.10;8.00;;;16.50;99.90;;;;;;5070928;28;20058;-72
2023/05/22 09:50:54;;;;;;;22.35;8.95;;;16.50;99.90;;;;;;5088771;28;20176;-69
2023/05/22 09:53:28;;;;;;;18.05;7.38;;;16.50;99.90;;;;;;5087586;28;20044;-63
2023/05/22 09:55:58;;;;;;;20.98;7.78;;;16.60;99.90;;;;;;5090397;28;20073;-66
2023/05/22 09:58:26;;;;;;;21.02;8.80;;;16.60;99.90;;;;;;5087809;28;20051;-62
2023/05/22 10:00:55;;;;;;;18.48;7.18;;;16.60;99.90;;;;;;5071246;28;20712;-68
2023/05/22 10:03:23;;;;;;;24.10;7.65;;;16.60;99.90;;;;;;5088475;28;20051;-68
2023/05/22 10:05:52;;;;;;;20.88;7.28;;;16.60;99.90;;;;;;5109304;27;20059;-70
2023/05/22 10:08:27;;;;;;;16.98;8.27;;;16.60;99.90;;;;;;5066274;28;20047;-63
2023/05/22 10:10:53;;;;;;;16.73;7.70;;;16.60;99.90;;;;;;5073836;28;20047;-68
2023/05/22 10:13:20;;;;;;;20.33;8.13;;;16.60;99.90;;;;;;5055985;28;20063;-70
2023/05/22 10:15:49;;;;;;;15.32;8.18;;;16.60;99.90;;;;;;5092346;27;20138;-65
2023/05/22 10:18:16;;;;;;;18.55;7.70;;;16.60;99.90;;;;;;5070252;28;20180;-61
2023/05/22 10:20:42;;;;;;;12.88;8.30;;;16.60;99.90;;;;;;5087297;28;20089;-66
2023/05/22 10:23:09;;;;;;;15.85;7.70;;;16.70;99.90;;;;;;5103722;28;20047;-63
2023/05/22 10:25:38;;;;;;;16.98;8.05;;;16.70;99.90;;;;;;5088421;27;20047;-64
2023/05/22 10:28:04;;;;;;;12.13;7.77;;;16.60;99.90;;;;;;5064883;28;20132;-66
2023/05/22 10:30:35;;;;;;;15.57;7.95;;;16.60;99.90;;;;;;5068187;28;20126;-64
2023/05/22 10:33:01;;;;;;;13.77;7.80;;;16.60;99.90;;;;;;5087037;28;20506;-62
2023/05/22 10:35:27;;;;;;;14.02;8.25;;;16.70;99.90;;;;;;5080575;28;20079;-68
2023/05/22 10:37:58;;;;;;;18.80;9.43;;;16.60;99.90;;;;;;5101439;27;20090;-66
2023/05/22 10:40:29;;;;;;;13.32;8.18;;;16.60;99.90;;;;;;5087620;28;20853;-66
2023/05/22 10:42:59;;;;;;;21.30;10.00;;;16.60;99.90;;;;;;5086432;28;20068;-72
2023/05/22 10:45:27;;;;;;;20.23;8.43;;;16.70;99.90;;;;;;5069797;28;20051;-68
2023/05/22 10:48:07;;;;;;;19.65;9.25;;;16.70;99.90;;;;;;5082226;27;20044;-63
2023/05/22 10:50:34;;;;;;;28.25;8.65;;;16.80;99.90;;;;;;5084412;28;20063;-71
2023/05/22 10:53:20;;;;;;;28.23;10.55;;;16.80;99.90;;;;;;5086841;28;20434;-67
2023/05/22 10:55:47;;;;;;;27.67;9.82;;;17.00;99.90;;;;;;5059830;28;20130;-70
2023/05/22 10:58:14;;;;;;;20.90;10.55;;;17.00;99.90;;;;;;5086869;28;20051;-65
2023/05/22 11:00:40;;;;;;;24.48;9.65;;;17.10;99.90;;;;;;5091272;28;20047;-61
2023/05/22 11:03:06;;;;;;;23.33;11.45;;;17.10;99.90;;;;;;5087052;28;20055;-61
2023/05/22 11:05:35;;;;;;;18.38;9.32;;;17.20;99.90;;;;;;5070708;28;20114;-66
2023/05/22 11:08:31;;;;;;;17.75;10.02;;;17.20;99.90;;;;;;5070690;28;20636;-60
2023/05/22 11:11:00;;;;;;;22.38;10.48;;;17.20;99.90;;;;;;5103495;28;20047;-65
2023/05/22 11:13:26;;;;;;;21.88;10.32;;;17.20;99.90;;;;;;5070770;28;20051;-64
2023/05/22 11:15:56;;;;;;;22.48;9.82;;;17.30;99.90;;;;;;5086423;28;20043;-65
2023/05/22 11:18:22;;;;;;;;;;;17.30;99.90;;;;;;5087800;28;20060;-61
2023/05/22 11:20:48;;;;;;;16.88;9.23;;;17.20;99.90;;;;;;5087535;28;19930;-66
2023/05/22 11:23:18;;;;;;;11.80;8.65;;;17.10;99.90;;;;;;5086486;28;20047;-70
2023/05/22 11:25:44;;;;;;;13.77;9.13;;;17.20;99.90;;;;;;5086728;28;20398;-66
2023/05/22 11:28:11;;;;;;;19.15;9.70;;;17.30;99.90;;;;;;5086335;28;20043;-68
2023/05/22 11:30:38;;;;;;;12.52;9.27;;;17.50;99.90;;;;;;5088219;28;20039;-63
2023/05/22 11:33:05;;;;;;;17.38;10.57;;;17.60;99.90;;;;;;5086420;28;20047;-62
2023/05/22 11:35:30;;;;;;;19.38;9.27;;;17.60;99.90;;;;;;5087220;28;20067;-72
2023/05/22 11:37:57;;;;;;;14.52;9.32;;;17.70;99.90;;;;;;5068851;28;20040;-61
2023/05/22 11:40:28;;;;;;;16.95;9.57;;;17.70;99.90;;;;;;5070105;28;20506;-74
2023/05/22 11:42:54;;;;;;;15.90;9.70;;;17.70;99.90;;;;;;5105478;28;20048;-70
2023/05/22 11:45:20;;;;;;;13.77;9.25;;;17.70;99.90;;;;;;5086241;28;20172;-69
2023/05/22 11:47:47;;;;;;;10.73;9.10;;;17.90;99.90;;;;;;5085925;28;20052;-63
2023/05/22 11:50:13;;;;;;;19.00;11.35;;;17.90;99.90;;;;;;5086779;28;20066;-73
2023/05/22 11:52:41;;;;;;;17.40;10.38;;;18.00;99.90;;;;;;5084671;28;20043;-64
2023/05/22 11:55:08;;;;;;;15.23;10.10;;;18.20;99.90;;;;;;5084652;28;20471;-62
2023/05/22 11:57:35;;;;;;;16.98;10.45;;;18.50;99.90;;;;;;5073865;28;20130;-67
2023/05/22 12:00:04;;;;;;;20.25;9.90;;;18.70;99.90;;;;;;5090480;28;20055;-67
2023/05/22 12:02:30;;;;;;;16.63;10.68;;;18.90;99.90;;;;;;5090675;28;20048;-64
2023/05/22 12:04:57;;;;;;;12.48;9.93;;;19.30;99.90;;;;;;5090094;28;20050;-64
2023/05/22 12:07:24;;;;;;;17.67;10.77;;;19.30;99.90;;;;;;5072737;28;20444;-68
2023/05/22 12:09:50;;;;;;;16.33;10.32;;;19.50;99.90;;;;;;5079156;28;20074;-66
2023/05/22 12:12:17;;;;;;;16.17;11.13;;;19.50;99.90;;;;;;5089554;27;20028;-62
2023/05/22 12:14:47;;;;;;;17.05;10.38;;;19.60;99.90;;;;;;5089940;28;20494;-72
2023/05/22 12:17:13;;;;;;;15.52;9.82;;;19.70;99.90;;;;;;5090575;28;20134;-72
2023/05/22 12:19:40;;;;;;;12.25;9.77;;;19.80;99.90;;;;;;5088923;28;20052;-69
2023/05/22 12:22:06;;;;;;;19.63;9.95;;;19.90;99.90;;;;;;5089250;28;20043;-69
2023/05/22 12:24:45;;;;;;;14.43;10.35;;;20.00;99.90;;;;;;5089759;28;20100;-64
2023/05/22 12:27:12;;;;;;;19.55;10.27;;;20.00;99.90;;;;;;5073899;28;20467;-66
2023/05/22 12:29:38;;;;;;;16.17;9.60;;;20.10;99.90;;;;;;5107940;28;20105;-68
2023/05/22 12:32:07;;;;;;;11.98;9.23;;;20.30;99.90;;;;;;5087240;28;20075;-69
2023/05/22 12:34:53;;;;;;;10.18;9.07;;;20.40;99.90;;;;;;5072935;28;20083;-63
2023/05/22 12:37:21;;;;;;;15.27;10.20;;;20.50;99.90;;;;;;5106594;28;20127;-67